createdAt,value
2022-07-27T00:01:16.529Z,87.80
2022-07-27T00:04:19.878Z,89.15
2022-07-27T00:07:23.368Z,89.06
2022-07-27T00:10:27.643Z,90.56
2022-07-27T00:13:30.449Z,89.61
2022-07-27T00:16:33.513Z,89.55
2022-07-27T00:19:36.266Z,90.01
2022-07-27T00:22:38.857Z,88.39
2022-07-27T00:25:42.809Z,88.44
2022-07-27T00:28:45.422Z,89.17
2022-07-27T00:31:48.074Z,89.40
2022-07-27T00:34:50.773Z,89.97
2022-07-27T00:37:53.471Z,89.25
2022-07-27T00:40:57.449Z,88.41
2022-07-27T00:44:01.332Z,87.77
2022-07-27T00:47:04.735Z,87.67
2022-07-27T00:50:08.622Z,88.24
2022-07-27T00:53:11.905Z,87.77
2022-07-27T00:56:17.008Z,86.36
2022-07-27T00:59:21.179Z,87.92
2022-07-27T01:02:23.939Z,89.04
2022-07-27T01:05:36.624Z,87.72
2022-07-27T01:08:42.525Z,86.41
2022-07-27T01:11:47.072Z,85.83
2022-07-27T01:14:51.157Z,85.09
2022-07-27T01:17:53.737Z,85.13
2022-07-27T01:20:56.957Z,84.88
2022-07-27T01:24:01.151Z,87.53
2022-07-27T01:27:05.256Z,87.45
2022-07-27T01:30:26.396Z,86.22
2022-07-27T01:33:29.186Z,85.95
2022-07-27T01:36:32.012Z,85.87
2022-07-27T01:39:35.941Z,87.56
2022-07-27T01:42:38.566Z,85.64
2022-07-27T01:45:41.199Z,85.30
2022-07-27T01:48:44.082Z,86.03
2022-07-27T01:51:46.823Z,88.48
2022-07-27T01:54:50.761Z,89.02
2022-07-27T01:57:53.375Z,88.06
2022-07-27T02:00:56.015Z,88.38
2022-07-27T02:03:58.652Z,87.18
2022-07-27T02:07:01.261Z,86.93
2022-07-27T02:10:05.952Z,86.66
2022-07-27T02:13:22.106Z,87.60
2022-07-27T02:16:25.407Z,89.67
2022-07-27T02:19:29.079Z,88.67
2022-07-27T02:22:31.816Z,87.88
2022-07-27T02:25:36.123Z,88.52
2022-07-27T02:28:39.318Z,88.60
2022-07-27T02:31:41.999Z,87.37
2022-07-27T02:34:45.164Z,86.67
2022-07-27T02:37:48.163Z,86.01
2022-07-27T02:40:52.204Z,88.67
2022-07-27T02:43:54.845Z,88.27
2022-07-27T02:46:57.499Z,89.82
2022-07-27T02:50:00.129Z,89.00
2022-07-27T02:53:02.756Z,90.38
2022-07-27T02:56:07.045Z,89.17
2022-07-27T02:59:09.933Z,89.98
2022-07-27T03:02:12.813Z,88.75
2022-07-27T03:05:15.674Z,89.39
2022-07-27T03:08:18.269Z,88.64
2022-07-27T03:11:22.300Z,88.54
2022-07-27T03:14:25.585Z,89.48
2022-07-27T03:17:28.315Z,89.52
2022-07-27T03:20:30.933Z,87.96
2022-07-27T03:23:33.604Z,89.29
2022-07-27T03:26:37.643Z,87.98
2022-07-27T03:29:40.282Z,89.41
2022-07-27T03:32:42.927Z,88.16
2022-07-27T03:35:45.777Z,86.67
2022-07-27T03:38:48.556Z,86.55
2022-07-27T03:41:52.545Z,86.50
2022-07-27T03:44:55.148Z,86.51
2022-07-27T03:47:57.877Z,86.56
2022-07-27T03:51:00.528Z,87.70
2022-07-27T03:54:03.886Z,86.03
2022-07-27T03:57:07.771Z,89.31
2022-07-27T04:00:12.409Z,89.27
2022-07-27T04:03:15.017Z,89.73
2022-07-27T04:06:17.630Z,89.98
2022-07-27T04:09:21.208Z,89.68
2022-07-27T04:12:25.246Z,87.88
2022-07-27T04:15:28.264Z,87.53
2022-07-27T04:18:30.950Z,88.41
2022-07-27T04:21:34.558Z,88.29
2022-07-27T04:24:37.353Z,89.20
2022-07-27T04:27:41.364Z,88.94
2022-07-27T04:30:44.027Z,88.36
2022-07-27T04:33:46.875Z,89.78
2022-07-27T04:36:50.514Z,89.84
2022-07-27T04:39:57.737Z,88.19
2022-07-27T04:43:03.022Z,90.23
2022-07-27T04:46:08.483Z,91.30
2022-07-27T04:49:14.820Z,90.43
2022-07-27T04:52:17.986Z,90.85
2022-07-27T04:55:21.523Z,89.90
2022-07-27T04:58:25.842Z,90.73
2022-07-27T05:01:34.703Z,90.86
2022-07-27T05:04:37.917Z,90.60
2022-07-27T05:07:40.565Z,90.24
2022-07-27T05:10:43.136Z,88.76
2022-07-27T05:13:47.093Z,88.29
2022-07-27T05:16:50.028Z,90.57
2022-07-27T05:19:52.947Z,88.60
2022-07-27T05:22:55.545Z,88.46
2022-07-27T05:25:58.217Z,87.62
2022-07-27T05:29:02.233Z,88.04
2022-07-27T05:32:05.822Z,87.04
2022-07-27T05:35:09.513Z,86.46
2022-07-27T05:38:12.243Z,84.67
2022-07-27T05:41:14.893Z,85.62
2022-07-27T05:44:18.921Z,86.11
2022-07-27T05:47:21.726Z,85.78
2022-07-27T05:50:24.310Z,84.46
2022-07-27T05:53:27.419Z,83.29
2022-07-27T05:56:30.369Z,84.66
2022-07-27T05:59:36.071Z,84.07
2022-07-27T06:02:38.664Z,81.90
2022-07-27T06:05:41.350Z,85.23
2022-07-27T06:08:43.198Z,83.18
2022-07-27T06:11:45.816Z,82.14
2022-07-27T06:14:51.120Z,80.81
2022-07-27T06:17:54.741Z,82.57
2022-07-27T06:20:57.336Z,80.28
2022-07-27T06:23:59.972Z,81.03
2022-07-27T06:27:02.653Z,81.14
2022-07-27T06:30:07.885Z,80.04
2022-07-27T06:33:10.488Z,80.21
2022-07-27T06:36:13.548Z,81.40
2022-07-27T06:39:16.279Z,79.96
2022-07-27T06:42:18.946Z,80.05
2022-07-27T06:45:22.918Z,81.56
2022-07-27T06:48:26.299Z,83.79
2022-07-27T06:51:28.980Z,83.07
2022-07-27T06:54:32.252Z,81.21
2022-07-27T06:57:34.907Z,77.42
2022-07-27T07:00:38.914Z,76.53
2022-07-27T07:03:41.603Z,74.99
2022-07-27T07:06:44.374Z,75.82
2022-07-27T07:09:47.020Z,74.89
2022-07-27T07:12:49.715Z,76.27
2022-07-27T07:15:53.879Z,76.20
2022-07-27T07:18:56.488Z,76.31
2022-07-27T07:21:59.074Z,76.79
2022-07-27T07:25:03.161Z,74.03
2022-07-27T07:28:06.933Z,74.26
2022-07-27T07:31:11.141Z,74.41
2022-07-27T07:34:13.809Z,73.92
2022-07-27T07:37:16.503Z,72.56
2022-07-27T07:43:43.402Z,72.65
2022-07-27T07:46:47.588Z,72.27
2022-07-27T07:49:50.380Z,72.56
2022-07-27T07:52:54.846Z,72.64
2022-07-27T07:55:58.314Z,71.79
2022-07-27T07:59:04.766Z,72.62
2022-07-27T08:02:08.812Z,71.63
2022-07-27T08:05:12.101Z,70.26
2022-07-27T08:08:14.904Z,71.23
2022-07-27T08:11:17.577Z,71.19
2022-07-27T08:14:20.203Z,68.47
2022-07-27T08:17:24.152Z,67.47
2022-07-27T08:20:28.312Z,66.31
2022-07-27T08:23:31.759Z,67.56
2022-07-27T08:26:34.747Z,65.86
2022-07-27T08:29:37.644Z,62.48
2022-07-27T08:32:50.110Z,64.49
2022-07-27T08:35:52.883Z,62.12
2022-07-27T08:38:55.629Z,62.81
2022-07-27T08:42:04.136Z,64.92
2022-07-27T08:45:09.047Z,64.41
2022-07-27T08:48:15.424Z,65.44
2022-07-27T08:51:18.359Z,64.64
2022-07-27T08:54:21.837Z,64.96
2022-07-27T08:57:24.491Z,65.55
2022-07-27T09:00:27.960Z,67.92
2022-07-27T09:03:32.858Z,67.39
2022-07-27T09:06:43.422Z,69.07
2022-07-27T09:09:48.315Z,67.38
2022-07-27T09:12:51.017Z,65.05
2022-07-27T09:16:16.872Z,63.39
2022-07-27T09:19:19.500Z,63.16
2022-07-27T09:22:39.611Z,61.79
2022-07-27T09:26:02.990Z,59.02
2022-07-27T09:29:07.214Z,56.14
2022-07-27T09:32:15.678Z,57.59
2022-07-27T09:35:22.936Z,57.41
2022-07-27T09:38:26.759Z,55.00
2022-07-27T09:41:41.186Z,54.54
2022-07-27T09:44:46.126Z,52.99
2022-07-27T09:48:07.767Z,52.53
2022-07-27T09:51:57.640Z,52.37
2022-07-27T09:54:44.462Z,50.09
2022-07-27T09:57:54.670Z,52.89
2022-07-27T10:00:58.801Z,51.41
2022-07-27T10:04:04.607Z,51.23
2022-07-27T10:07:13.247Z,52.18
2022-07-27T10:10:17.000Z,50.21
2022-07-27T10:13:19.643Z,50.74
2022-07-27T10:16:24.265Z,49.32
2022-07-27T10:19:32.408Z,49.38
2022-07-27T10:22:53.600Z,49.90
2022-07-27T10:26:20.313Z,48.53
2022-07-27T10:29:24.505Z,48.64
2022-07-27T10:32:31.009Z,48.47
2022-07-27T10:35:35.203Z,49.35
2022-07-27T10:38:48.536Z,50.82
2022-07-27T10:41:51.259Z,50.85
2022-07-27T10:45:02.843Z,50.50
2022-07-27T10:48:05.868Z,48.85
2022-07-27T10:51:09.696Z,50.35
2022-07-27T10:54:23.357Z,50.69
2022-07-27T10:57:27.948Z,53.39
2022-07-27T11:00:59.301Z,53.91
2022-07-27T11:04:10.309Z,56.06
2022-07-27T11:07:26.683Z,55.00
2022-07-27T11:10:43.732Z,50.07
2022-07-27T11:13:47.104Z,49.56
2022-07-27T11:16:55.859Z,49.83
2022-07-27T11:20:00.610Z,50.66
2022-07-27T11:23:50.414Z,52.72
2022-07-27T11:26:45.713Z,49.57
2022-07-27T11:29:48.433Z,49.90
2022-07-27T11:32:51.160Z,45.25
2022-07-27T11:35:55.004Z,44.92
2022-07-27T11:38:57.648Z,44.96
2022-07-27T11:42:08.621Z,46.40
2022-07-27T11:45:13.432Z,45.07
2022-07-27T11:48:18.696Z,45.73
2022-07-27T11:51:21.918Z,46.70
2022-07-27T11:54:28.114Z,46.73
2022-07-27T11:57:34.073Z,48.85
2022-07-27T12:00:44.759Z,44.97
2022-07-27T12:03:47.804Z,46.38
2022-07-27T12:06:59.218Z,49.32
2022-07-27T12:10:06.787Z,49.77
2022-07-27T12:13:19.348Z,49.53
2022-07-27T12:16:22.110Z,50.63
2022-07-27T12:19:25.297Z,50.46
2022-07-27T12:22:34.031Z,47.79
2022-07-27T12:25:39.658Z,47.01
2022-07-27T12:28:43.716Z,46.36
2022-07-27T12:31:50.120Z,45.75
2022-07-27T12:34:52.927Z,45.04
2022-07-27T12:38:00.721Z,48.24
2022-07-27T12:41:03.462Z,46.72
2022-07-27T12:44:09.488Z,47.99
2022-07-27T12:47:30.037Z,47.59
2022-07-27T12:50:33.164Z,48.32
2022-07-27T12:53:37.855Z,49.65
2022-07-27T12:56:40.835Z,50.26
2022-07-27T13:02:55.052Z,50.64
2022-07-27T13:05:57.849Z,51.76
2022-07-27T13:09:00.450Z,50.03
2022-07-27T13:12:03.381Z,49.12
2022-07-27T13:15:07.950Z,49.79
2022-07-27T13:18:11.896Z,51.10
2022-07-27T13:21:14.989Z,51.49
2022-07-27T13:24:17.697Z,52.15
2022-07-27T13:27:21.440Z,52.65
2022-07-27T13:30:24.892Z,51.80
2022-07-27T13:33:29.638Z,51.95
2022-07-27T13:36:32.283Z,48.98
2022-07-27T13:39:34.866Z,50.92
2022-07-27T13:42:37.807Z,49.06
2022-07-27T13:45:42.958Z,47.90
2022-07-27T18:39:23.838Z,58.14
2022-07-27T18:42:36.370Z,60.25
2022-07-27T18:45:39.830Z,57.61
2022-07-27T18:48:44.317Z,57.93
2022-07-27T18:51:46.981Z,58.60
2022-07-27T18:54:50.931Z,57.85
2022-07-27T18:57:55.464Z,60.33
2022-07-27T19:00:58.450Z,60.60
2022-07-27T19:04:01.979Z,58.43
2022-07-27T19:07:06.530Z,60.33
2022-07-27T19:10:11.744Z,60.10
2022-07-27T19:13:14.887Z,59.82
2022-07-27T19:16:17.535Z,59.52
2022-07-27T19:19:23.033Z,59.95
2022-07-27T19:22:27.209Z,59.70
2022-07-27T19:25:31.373Z,60.84
2022-07-27T19:28:34.007Z,61.66
2022-07-27T19:31:37.802Z,62.66
2022-07-27T19:34:40.639Z,60.11
2022-07-27T19:37:43.243Z,62.49
2022-07-27T19:40:47.580Z,60.07
2022-07-27T19:43:50.588Z,63.53
2022-07-27T19:46:53.402Z,62.86
2022-07-27T19:49:55.977Z,63.78
2022-07-27T19:52:58.607Z,60.50
2022-07-27T19:56:02.579Z,62.60
2022-07-27T19:59:05.153Z,62.93
2022-07-27T20:02:07.966Z,61.56
2022-07-27T20:05:11.227Z,65.93
2022-07-27T20:08:14.786Z,65.86
2022-07-27T20:11:18.723Z,66.40
2022-07-27T20:14:21.371Z,68.34
2022-07-27T20:17:23.967Z,67.74
2022-07-27T20:20:26.715Z,68.59
2022-07-27T20:23:29.395Z,68.26
2022-07-27T20:26:33.348Z,68.44
2022-07-27T20:29:35.987Z,69.21
2022-07-27T20:32:38.680Z,68.10
2022-07-27T20:35:41.338Z,67.43
2022-07-27T20:38:43.932Z,68.92
2022-07-27T20:41:47.855Z,69.71
2022-07-27T20:44:50.470Z,69.51
2022-07-27T20:47:53.037Z,68.68
2022-07-27T20:50:55.639Z,70.26
2022-07-27T20:53:58.318Z,67.26
2022-07-27T20:57:02.375Z,70.13
2022-07-27T21:00:06.431Z,71.13
2022-07-27T21:03:09.031Z,68.79
2022-07-27T21:06:11.651Z,71.53
2022-07-27T21:09:15.291Z,71.59
2022-07-27T21:12:19.587Z,70.89
2022-07-27T21:15:22.272Z,71.99
2022-07-27T21:18:36.025Z,71.74
2022-07-27T21:21:38.631Z,73.65
2022-07-27T21:24:41.227Z,73.86
2022-07-27T21:27:47.129Z,74.60
2022-07-27T21:30:50.822Z,74.49
2022-07-27T21:33:53.473Z,74.54
2022-07-27T21:36:56.202Z,74.75
2022-07-27T21:39:58.818Z,74.79
2022-07-27T21:43:02.763Z,75.63
2022-07-27T21:46:05.399Z,76.13
2022-07-27T21:49:08.370Z,76.23
2022-07-27T21:52:11.177Z,77.11
2022-07-27T21:55:13.918Z,77.74
2022-07-27T21:58:26.888Z,77.83
2022-07-27T22:01:29.506Z,77.48
2022-07-27T22:04:32.184Z,77.77
2022-07-27T22:07:34.822Z,77.48
2022-07-27T22:10:37.430Z,77.76
2022-07-27T22:13:41.416Z,79.55
2022-07-27T22:16:44.214Z,79.56
2022-07-27T22:19:46.824Z,79.69
2022-07-27T22:22:50.747Z,79.97
2022-07-27T22:25:53.432Z,79.47
2022-07-27T22:28:57.423Z,80.30
2022-07-27T22:32:00.061Z,80.99
2022-07-27T22:35:02.784Z,80.12
2022-07-27T22:38:05.337Z,81.79
2022-07-27T22:41:08.016Z,81.22
2022-07-27T22:44:12.354Z,80.52
2022-07-27T22:47:15.326Z,81.30
2022-07-27T22:50:20.314Z,81.56
2022-07-27T22:53:22.949Z,82.25
2022-07-27T22:56:25.557Z,82.75
2022-07-27T22:59:29.599Z,82.06
2022-07-27T23:02:32.162Z,82.90
2022-07-27T23:05:34.815Z,82.02
2022-07-27T23:08:37.475Z,82.17
2022-07-27T23:11:40.050Z,83.22
2022-07-27T23:14:43.958Z,82.88
2022-07-27T23:17:51.874Z,83.31
2022-07-27T23:20:54.669Z,83.85
2022-07-27T23:23:57.271Z,84.64
2022-07-27T23:27:01.325Z,84.81
2022-07-27T23:30:05.951Z,84.40
2022-07-27T23:33:08.663Z,85.13
2022-07-27T23:36:11.942Z,85.20
2022-07-27T23:39:14.576Z,84.65
2022-07-27T23:42:17.171Z,84.74
2022-07-27T23:45:21.388Z,86.31
2022-07-27T23:48:24.994Z,85.97
2022-07-27T23:51:29.250Z,85.96
2022-07-27T23:54:32.286Z,86.02
2022-07-27T23:57:34.925Z,86.48
